sensor_id;sensor_type;location;lat;lon;timestamp;pressure;altitude;pressure_sealevel;temperature;humidity
45991;BME280;31721;41.740;-88.000;2023-05-19T00:00:37;98763.04;;;23.89;24.86
45991;BME280;31721;41.740;-88.000;2023-05-19T00:03:06;98762.30;;;23.82;24.95
45991;BME280;31721;41.740;-88.000;2023-05-19T00:05:36;98763.37;;;23.82;24.72
45991;BME280;31721;41.740;-88.000;2023-05-19T00:08:05;98762.20;;;23.69;24.83
45991;BME280;31721;41.740;-88.000;2023-05-19T00:10:34;98762.67;;;23.69;24.96
45991;BME280;31721;41.740;-88.000;2023-05-19T00:13:02;98761.20;;;23.61;25.25
45991;BME280;31721;41.740;-88.000;2023-05-19T00:15:31;98759.36;;;23.55;25.20
45991;BME280;31721;41.740;-88.000;2023-05-19T00:17:59;98757.45;;;23.41;25.41
45991;BME280;31721;41.740;-88.000;2023-05-19T00:20:26;98755.56;;;23.39;25.58
45991;BME280;31721;41.740;-88.000;2023-05-19T00:22:54;98756.99;;;23.24;25.54
45991;BME280;31721;41.740;-88.000;2023-05-19T00:25:22;98755.86;;;23.31;25.51
45991;BME280;31721;41.740;-88.000;2023-05-19T00:27:50;98755.52;;;23.23;25.72
45991;BME280;31721;41.740;-88.000;2023-05-19T00:30:18;98753.14;;;23.16;26.00
45991;BME280;31721;41.740;-88.000;2023-05-19T00:32:46;98753.88;;;23.08;25.77
45991;BME280;31721;41.740;-88.000;2023-05-19T00:35:15;98752.84;;;22.98;26.04
45991;BME280;31721;41.740;-88.000;2023-05-19T00:37:43;98754.91;;;22.90;25.91
45991;BME280;31721;41.740;-88.000;2023-05-19T00:40:11;98756.68;;;22.83;26.03
45991;BME280;31721;41.740;-88.000;2023-05-19T00:42:39;98760.30;;;22.81;25.91
45991;BME280;31721;41.740;-88.000;2023-05-19T00:45:08;98762.68;;;22.80;26.15
45991;BME280;31721;41.740;-88.000;2023-05-19T00:47:36;98764.99;;;22.64;26.28
45991;BME280;31721;41.740;-88.000;2023-05-19T00:50:04;98763.81;;;22.63;26.33
45991;BME280;31721;41.740;-88.000;2023-05-19T00:52:32;98763.31;;;22.47;26.30
45991;BME280;31721;41.740;-88.000;2023-05-19T00:55:02;98759.70;;;22.45;26.42
45991;BME280;31721;41.740;-88.000;2023-05-19T00:57:30;98760.59;;;22.29;26.63
45991;BME280;31721;41.740;-88.000;2023-05-19T00:59:57;98760.97;;;22.20;26.45
45991;BME280;31721;41.740;-88.000;2023-05-19T01:02:26;98767.12;;;22.15;26.58
45991;BME280;31721;41.740;-88.000;2023-05-19T01:04:54;98770.31;;;22.04;26.47
45991;BME280;31721;41.740;-88.000;2023-05-19T01:07:23;98768.22;;;21.88;26.85
45991;BME280;31721;41.740;-88.000;2023-05-19T01:09:51;98767.39;;;21.86;27.08
45991;BME280;31721;41.740;-88.000;2023-05-19T01:12:19;98768.88;;;21.70;27.42
45991;BME280;31721;41.740;-88.000;2023-05-19T01:14:48;98764.73;;;21.67;27.41
45991;BME280;31721;41.740;-88.000;2023-05-19T01:17:20;98759.88;;;21.57;27.34
45991;BME280;31721;41.740;-88.000;2023-05-19T01:19:55;98763.59;;;21.55;27.33
45991;BME280;31721;41.740;-88.000;2023-05-19T01:22:37;98762.92;;;21.38;27.63
45991;BME280;31721;41.740;-88.000;2023-05-19T01:25:22;98763.86;;;21.44;27.92
45991;BME280;31721;41.740;-88.000;2023-05-19T01:28:21;98763.28;;;21.25;28.30
45991;BME280;31721;41.740;-88.000;2023-05-19T01:30:53;98765.98;;;21.13;28.37
45991;BME280;31721;41.740;-88.000;2023-05-19T01:33:23;98767.18;;;21.01;28.36
45991;BME280;31721;41.740;-88.000;2023-05-19T01:35:51;98768.39;;;21.01;28.71
45991;BME280;31721;41.740;-88.000;2023-05-19T01:38:20;98766.66;;;20.91;28.68
45991;BME280;31721;41.740;-88.000;2023-05-19T01:40:49;98762.75;;;20.79;28.64
45991;BME280;31721;41.740;-88.000;2023-05-19T01:43:21;98761.27;;;20.69;28.93
45991;BME280;31721;41.740;-88.000;2023-05-19T01:45:51;98761.11;;;20.59;29.09
45991;BME280;31721;41.740;-88.000;2023-05-19T01:48:20;98756.68;;;20.50;29.25
45991;BME280;31721;41.740;-88.000;2023-05-19T01:50:50;98757.62;;;20.41;29.16
45991;BME280;31721;41.740;-88.000;2023-05-19T01:53:18;98760.92;;;20.32;28.84
45991;BME280;31721;41.740;-88.000;2023-05-19T01:55:48;98762.65;;;20.29;28.93
45991;BME280;31721;41.740;-88.000;2023-05-19T01:58:21;98768.46;;;20.09;28.58
45991;BME280;31721;41.740;-88.000;2023-05-19T02:00:55;98776.25;;;19.97;28.69
45991;BME280;31721;41.740;-88.000;2023-05-19T02:03:36;98774.70;;;19.87;28.72
45991;BME280;31721;41.740;-88.000;2023-05-19T02:06:19;98774.57;;;19.86;29.24
45991;BME280;31721;41.740;-88.000;2023-05-19T02:08:56;98778.53;;;19.70;29.41
45991;BME280;31721;41.740;-88.000;2023-05-19T02:11:32;98784.26;;;19.72;29.54
45991;BME280;31721;41.740;-88.000;2023-05-19T02:14:07;98786.60;;;19.62;29.51
45991;BME280;31721;41.740;-88.000;2023-05-19T02:16:36;98786.15;;;19.52;29.69
45991;BME280;31721;41.740;-88.000;2023-05-19T02:19:05;98791.16;;;19.42;29.60
45991;BME280;31721;41.740;-88.000;2023-05-19T02:21:42;98791.29;;;19.35;29.69
45991;BME280;31721;41.740;-88.000;2023-05-19T02:24:11;98791.57;;;19.34;29.65
45991;BME280;31721;41.740;-88.000;2023-05-19T02:26:40;98790.60;;;19.38;29.62
45991;BME280;31721;41.740;-88.000;2023-05-19T02:29:07;98794.12;;;19.33;29.52
45991;BME280;31721;41.740;-88.000;2023-05-19T02:31:36;98799.37;;;19.20;29.54
45991;BME280;31721;41.740;-88.000;2023-05-19T02:34:03;98798.12;;;19.14;29.72
45991;BME280;31721;41.740;-88.000;2023-05-19T02:36:33;98797.60;;;19.03;29.77
45991;BME280;31721;41.740;-88.000;2023-05-19T02:39:02;98794.88;;;19.03;29.76
45991;BME280;31721;41.740;-88.000;2023-05-19T02:41:30;98793.31;;;19.02;29.69
45991;BME280;31721;41.740;-88.000;2023-05-19T02:43:58;98798.77;;;18.95;29.47
45991;BME280;31721;41.740;-88.000;2023-05-19T02:46:26;98800.94;;;18.90;29.41
45991;BME280;31721;41.740;-88.000;2023-05-19T02:48:54;98802.87;;;18.82;29.47
45991;BME280;31721;41.740;-88.000;2023-05-19T02:51:22;98798.27;;;18.73;29.73
45991;BME280;31721;41.740;-88.000;2023-05-19T02:53:50;98795.64;;;18.70;29.72
45991;BME280;31721;41.740;-88.000;2023-05-19T02:56:17;98795.06;;;18.74;29.55
45991;BME280;31721;41.740;-88.000;2023-05-19T02:58:45;98797.14;;;18.54;29.19
45991;BME280;31721;41.740;-88.000;2023-05-19T03:01:13;98797.56;;;18.57;29.09
45991;BME280;31721;41.740;-88.000;2023-05-19T03:03:41;98794.47;;;18.50;28.97
45991;BME280;31721;41.740;-88.000;2023-05-19T03:06:10;98795.76;;;18.53;28.80
45991;BME280;31721;41.740;-88.000;2023-05-19T03:08:38;98793.21;;;18.46;28.79
45991;BME280;31721;41.740;-88.000;2023-05-19T03:11:06;98791.96;;;18.50;28.59
45991;BME280;31721;41.740;-88.000;2023-05-19T03:13:34;98793.09;;;18.51;28.46
45991;BME280;31721;41.740;-88.000;2023-05-19T03:16:02;98790.62;;;18.47;28.19
45991;BME280;31721;41.740;-88.000;2023-05-19T03:18:30;98785.09;;;18.48;27.99
45991;BME280;31721;41.740;-88.000;2023-05-19T03:20:57;98786.99;;;18.55;27.39
45991;BME280;31721;41.740;-88.000;2023-05-19T03:23:25;98781.99;;;18.47;27.22
45991;BME280;31721;41.740;-88.000;2023-05-19T03:25:53;98782.35;;;18.53;27.06
45991;BME280;31721;41.740;-88.000;2023-05-19T03:28:21;98785.10;;;18.66;26.98
45991;BME280;31721;41.740;-88.000;2023-05-19T03:30:49;98786.32;;;18.58;26.74
45991;BME280;31721;41.740;-88.000;2023-05-19T03:33:17;98786.04;;;18.66;26.86
45991;BME280;31721;41.740;-88.000;2023-05-19T03:35:45;98782.61;;;18.87;25.98
45991;BME280;31721;41.740;-88.000;2023-05-19T03:38:12;98781.29;;;18.94;26.05
45991;BME280;31721;41.740;-88.000;2023-05-19T03:40:40;98777.34;;;18.90;25.66
45991;BME280;31721;41.740;-88.000;2023-05-19T03:43:08;98780.43;;;18.77;25.81
45991;BME280;31721;41.740;-88.000;2023-05-19T03:45:36;98782.60;;;18.99;25.30
45991;BME280;31721;41.740;-88.000;2023-05-19T03:48:05;98784.56;;;18.98;25.65
45991;BME280;31721;41.740;-88.000;2023-05-19T03:50:33;98782.97;;;19.02;25.62
45991;BME280;31721;41.740;-88.000;2023-05-19T03:53:01;98786.93;;;19.18;25.20
45991;BME280;31721;41.740;-88.000;2023-05-19T03:55:29;98787.18;;;19.13;25.08
45991;BME280;31721;41.740;-88.000;2023-05-19T03:57:58;98790.80;;;19.14;25.08
45991;BME280;31721;41.740;-88.000;2023-05-19T04:00:25;98790.16;;;19.30;24.80
45991;BME280;31721;41.740;-88.000;2023-05-19T04:02:53;98790.64;;;19.32;25.02
45991;BME280;31721;41.740;-88.000;2023-05-19T04:05:21;98788.78;;;19.24;24.93
45991;BME280;31721;41.740;-88.000;2023-05-19T04:07:49;98788.35;;;19.18;25.36
45991;BME280;31721;41.740;-88.000;2023-05-19T04:10:18;98787.63;;;19.28;25.25
45991;BME280;31721;41.740;-88.000;2023-05-19T04:12:46;98790.67;;;19.31;25.72
45991;BME280;31721;41.740;-88.000;2023-05-19T04:15:14;98790.24;;;19.24;25.70
45991;BME280;31721;41.740;-88.000;2023-05-19T04:17:42;98786.07;;;19.55;25.13
45991;BME280;31721;41.740;-88.000;2023-05-19T04:20:11;98786.57;;;19.46;25.64
45991;BME280;31721;41.740;-88.000;2023-05-19T04:22:40;98785.95;;;19.29;25.61
45991;BME280;31721;41.740;-88.000;2023-05-19T04:25:08;98784.82;;;19.31;25.86
45991;BME280;31721;41.740;-88.000;2023-05-19T04:27:36;98784.02;;;19.51;25.47
45991;BME280;31721;41.740;-88.000;2023-05-19T04:30:05;98781.60;;;19.47;25.80
45991;BME280;31721;41.740;-88.000;2023-05-19T04:32:34;98777.89;;;19.47;25.67
45991;BME280;31721;41.740;-88.000;2023-05-19T04:35:02;98772.66;;;19.25;25.96
45991;BME280;31721;41.740;-88.000;2023-05-19T04:37:29;98769.22;;;19.11;26.30
45991;BME280;31721;41.740;-88.000;2023-05-19T04:39:58;98769.19;;;19.21;26.32
45991;BME280;31721;41.740;-88.000;2023-05-19T04:42:26;98767.85;;;19.05;26.32
45991;BME280;31721;41.740;-88.000;2023-05-19T04:44:53;98768.08;;;19.16;26.43
45991;BME280;31721;41.740;-88.000;2023-05-19T04:47:21;98769.76;;;19.12;26.04
45991;BME280;31721;41.740;-88.000;2023-05-19T04:49:49;98767.35;;;19.29;26.00
45991;BME280;31721;41.740;-88.000;2023-05-19T04:52:17;98764.73;;;19.24;26.11
45991;BME280;31721;41.740;-88.000;2023-05-19T04:54:45;98765.12;;;19.34;25.61
45991;BME280;31721;41.740;-88.000;2023-05-19T04:57:12;98772.20;;;19.30;25.86
45991;BME280;31721;41.740;-88.000;2023-05-19T04:59:40;98766.24;;;19.10;26.47
45991;BME280;31721;41.740;-88.000;2023-05-19T05:02:08;98762.82;;;19.20;26.01
45991;BME280;31721;41.740;-88.000;2023-05-19T05:04:36;98759.77;;;19.25;25.87
45991;BME280;31721;41.740;-88.000;2023-05-19T05:07:04;98754.41;;;18.98;26.13
45991;BME280;31721;41.740;-88.000;2023-05-19T05:09:31;98752.96;;;19.12;26.04
45991;BME280;31721;41.740;-88.000;2023-05-19T05:11:59;98756.91;;;19.28;25.83
45991;BME280;31721;41.740;-88.000;2023-05-19T05:14:28;98759.74;;;19.34;26.33
45991;BME280;31721;41.740;-88.000;2023-05-19T05:16:56;98754.82;;;19.32;26.27
45991;BME280;31721;41.740;-88.000;2023-05-19T05:19:25;98754.29;;;19.24;26.41
45991;BME280;31721;41.740;-88.000;2023-05-19T05:21:53;98750.09;;;19.52;26.28
45991;BME280;31721;41.740;-88.000;2023-05-19T05:24:22;98741.29;;;19.43;26.01
45991;BME280;31721;41.740;-88.000;2023-05-19T05:26:50;98735.22;;;19.64;25.92
45991;BME280;31721;41.740;-88.000;2023-05-19T05:29:19;98735.53;;;19.40;26.19
45991;BME280;31721;41.740;-88.000;2023-05-19T05:31:46;98737.15;;;19.33;26.45
45991;BME280;31721;41.740;-88.000;2023-05-19T05:34:14;98735.75;;;19.41;26.30
45991;BME280;31721;41.740;-88.000;2023-05-19T05:36:42;98731.84;;;19.60;26.18
45991;BME280;31721;41.740;-88.000;2023-05-19T05:39:10;98730.67;;;19.62;26.44
45991;BME280;31721;41.740;-88.000;2023-05-19T05:41:37;98730.25;;;19.58;26.68
45991;BME280;31721;41.740;-88.000;2023-05-19T05:44:05;98727.32;;;19.37;26.66
45991;BME280;31721;41.740;-88.000;2023-05-19T05:46:33;98726.37;;;19.47;26.61
45991;BME280;31721;41.740;-88.000;2023-05-19T05:49:01;98726.58;;;19.79;26.41
45991;BME280;31721;41.740;-88.000;2023-05-19T05:51:30;98729.55;;;19.53;26.64
45991;BME280;31721;41.740;-88.000;2023-05-19T05:53:59;98723.32;;;19.72;26.31
45991;BME280;31721;41.740;-88.000;2023-05-19T05:56:28;98734.15;;;19.79;26.40
45991;BME280;31721;41.740;-88.000;2023-05-19T05:58:56;98729.76;;;19.50;26.63
45991;BME280;31721;41.740;-88.000;2023-05-19T06:01:25;98733.67;;;19.37;27.11
45991;BME280;31721;41.740;-88.000;2023-05-19T06:03:53;98735.08;;;19.41;27.13
45991;BME280;31721;41.740;-88.000;2023-05-19T06:06:21;98728.35;;;19.47;26.99
45991;BME280;31721;41.740;-88.000;2023-05-19T06:08:49;98727.80;;;19.31;27.63
45991;BME280;31721;41.740;-88.000;2023-05-19T06:11:17;98727.47;;;19.59;27.64
45991;BME280;31721;41.740;-88.000;2023-05-19T06:13:45;98729.04;;;19.57;27.32
45991;BME280;31721;41.740;-88.000;2023-05-19T06:16:12;98729.41;;;19.49;27.69
45991;BME280;31721;41.740;-88.000;2023-05-19T06:18:40;98727.16;;;19.50;28.08
45991;BME280;31721;41.740;-88.000;2023-05-19T06:21:08;98724.66;;;19.35;28.18
45991;BME280;31721;41.740;-88.000;2023-05-19T06:23:36;98721.49;;;19.55;28.18
45991;BME280;31721;41.740;-88.000;2023-05-19T06:26:04;98717.50;;;19.39;28.71
45991;BME280;31721;41.740;-88.000;2023-05-19T06:28:32;98716.99;;;19.51;28.45
45991;BME280;31721;41.740;-88.000;2023-05-19T06:31:00;98714.57;;;19.32;28.87
45991;BME280;31721;41.740;-88.000;2023-05-19T06:33:27;98711.41;;;19.17;29.11
45991;BME280;31721;41.740;-88.000;2023-05-19T06:35:55;98710.14;;;19.34;29.15
45991;BME280;31721;41.740;-88.000;2023-05-19T06:38:23;98710.60;;;19.27;29.31
45991;BME280;31721;41.740;-88.000;2023-05-19T06:40:51;98713.57;;;19.29;29.53
45991;BME280;31721;41.740;-88.000;2023-05-19T06:43:19;98706.61;;;19.09;29.80
45991;BME280;31721;41.740;-88.000;2023-05-19T06:45:47;98702.19;;;19.27;30.06
45991;BME280;31721;41.740;-88.000;2023-05-19T06:48:14;98700.75;;;19.25;30.34
45991;BME280;31721;41.740;-88.000;2023-05-19T06:50:42;98697.73;;;19.18;30.04
45991;BME280;31721;41.740;-88.000;2023-05-19T06:53:10;98694.67;;;19.29;30.21
45991;BME280;31721;41.740;-88.000;2023-05-19T06:55:39;98697.58;;;19.40;30.48
45991;BME280;31721;41.740;-88.000;2023-05-19T06:58:06;98691.73;;;19.19;30.59
45991;BME280;31721;41.740;-88.000;2023-05-19T07:00:34;98685.75;;;19.13;30.79
45991;BME280;31721;41.740;-88.000;2023-05-19T07:03:02;98685.37;;;19.28;30.97
45991;BME280;31721;41.740;-88.000;2023-05-19T07:05:30;98686.62;;;19.33;31.29
45991;BME280;31721;41.740;-88.000;2023-05-19T07:07:58;98684.39;;;19.18;31.47
45991;BME280;31721;41.740;-88.000;2023-05-19T07:10:25;98682.25;;;19.26;31.64
45991;BME280;31721;41.740;-88.000;2023-05-19T07:12:54;98676.31;;;19.30;32.14
45991;BME280;31721;41.740;-88.000;2023-05-19T07:15:22;98676.33;;;19.19;32.23
45991;BME280;31721;41.740;-88.000;2023-05-19T07:17:49;98673.54;;;19.21;32.62
45991;BME280;31721;41.740;-88.000;2023-05-19T07:20:17;98665.40;;;19.08;32.68
45991;BME280;31721;41.740;-88.000;2023-05-19T07:22:45;98669.97;;;19.07;33.00
45991;BME280;31721;41.740;-88.000;2023-05-19T07:25:13;98672.08;;;19.18;33.18
45991;BME280;31721;41.740;-88.000;2023-05-19T07:27:40;98671.92;;;19.17;33.17
45991;BME280;31721;41.740;-88.000;2023-05-19T07:30:09;98664.74;;;19.14;33.44
45991;BME280;31721;41.740;-88.000;2023-05-19T07:32:36;98664.76;;;19.13;33.80
45991;BME280;31721;41.740;-88.000;2023-05-19T07:35:05;98662.17;;;19.22;33.83
45991;BME280;31721;41.740;-88.000;2023-05-19T07:37:33;98658.01;;;19.16;34.06
45991;BME280;31721;41.740;-88.000;2023-05-19T07:40:01;98658.91;;;19.15;34.33
45991;BME280;31721;41.740;-88.000;2023-05-19T07:42:30;98658.23;;;19.12;34.32
45991;BME280;31721;41.740;-88.000;2023-05-19T07:44:58;98660.43;;;19.07;34.84
45991;BME280;31721;41.740;-88.000;2023-05-19T07:47:26;98660.05;;;19.17;35.26
45991;BME280;31721;41.740;-88.000;2023-05-19T07:49:54;98661.86;;;19.26;35.30
45991;BME280;31721;41.740;-88.000;2023-05-19T07:52:22;98661.33;;;19.16;35.22
45991;BME280;31721;41.740;-88.000;2023-05-19T07:54:50;98665.44;;;19.16;35.69
45991;BME280;31721;41.740;-88.000;2023-05-19T07:57:18;98662.02;;;19.01;35.54
45991;BME280;31721;41.740;-88.000;2023-05-19T07:59:46;98666.71;;;19.11;35.97
45991;BME280;31721;41.740;-88.000;2023-05-19T08:02:14;98668.37;;;18.91;36.20
45991;BME280;31721;41.740;-88.000;2023-05-19T08:04:42;98666.61;;;19.01;36.55
45991;BME280;31721;41.740;-88.000;2023-05-19T08:07:09;98667.63;;;19.06;37.26
45991;BME280;31721;41.740;-88.000;2023-05-19T08:09:38;98667.02;;;19.03;37.25
45991;BME280;31721;41.740;-88.000;2023-05-19T08:12:10;98660.65;;;19.02;37.37
45991;BME280;31721;41.740;-88.000;2023-05-19T08:14:38;98661.37;;;19.08;37.77
45991;BME280;31721;41.740;-88.000;2023-05-19T08:17:06;98666.36;;;18.98;37.59
45991;BME280;31721;41.740;-88.000;2023-05-19T08:19:34;98667.67;;;19.10;38.12
45991;BME280;31721;41.740;-88.000;2023-05-19T08:22:02;98669.98;;;19.16;38.11
45991;BME280;31721;41.740;-88.000;2023-05-19T08:24:30;98670.75;;;19.22;38.19
45991;BME280;31721;41.740;-88.000;2023-05-19T08:26:59;98669.65;;;19.12;38.56
45991;BME280;31721;41.740;-88.000;2023-05-19T08:29:27;98668.14;;;19.00;38.80
45991;BME280;31721;41.740;-88.000;2023-05-19T08:31:55;98665.10;;;19.16;38.42
45991;BME280;31721;41.740;-88.000;2023-05-19T08:34:23;98661.69;;;19.10;38.91
45991;BME280;31721;41.740;-88.000;2023-05-19T08:36:50;98658.56;;;18.98;38.88
45991;BME280;31721;41.740;-88.000;2023-05-19T08:39:18;98655.43;;;18.92;39.34
45991;BME280;31721;41.740;-88.000;2023-05-19T08:41:45;98652.65;;;19.05;39.65
45991;BME280;31721;41.740;-88.000;2023-05-19T08:44:13;98649.74;;;19.10;39.94
45991;BME280;31721;41.740;-88.000;2023-05-19T08:46:41;98645.41;;;18.95;39.86
45991;BME280;31721;41.740;-88.000;2023-05-19T08:49:12;98644.57;;;19.05;39.96
45991;BME280;31721;41.740;-88.000;2023-05-19T08:51:45;98650.40;;;19.11;40.06
45991;BME280;31721;41.740;-88.000;2023-05-19T08:54:16;98653.05;;;18.95;40.36
45991;BME280;31721;41.740;-88.000;2023-05-19T08:56:45;98650.61;;;19.10;40.67
45991;BME280;31721;41.740;-88.000;2023-05-19T08:59:14;98649.27;;;19.04;40.57
45991;BME280;31721;41.740;-88.000;2023-05-19T09:01:43;98648.94;;;19.07;40.87
45991;BME280;31721;41.740;-88.000;2023-05-19T09:04:12;98647.90;;;19.12;40.76
45991;BME280;31721;41.740;-88.000;2023-05-19T09:06:39;98643.61;;;18.86;40.55
45991;BME280;31721;41.740;-88.000;2023-05-19T09:09:07;98640.89;;;18.90;40.99
45991;BME280;31721;41.740;-88.000;2023-05-19T09:11:35;98634.32;;;18.90;40.92
45991;BME280;31721;41.740;-88.000;2023-05-19T09:14:02;98632.02;;;19.00;40.94
45991;BME280;31721;41.740;-88.000;2023-05-19T09:16:31;98636.02;;;18.89;41.50
45991;BME280;31721;41.740;-88.000;2023-05-19T09:18:59;98634.23;;;19.12;41.48
45991;BME280;31721;41.740;-88.000;2023-05-19T09:21:27;98630.97;;;18.89;41.47
45991;BME280;31721;41.740;-88.000;2023-05-19T09:23:55;98636.03;;;18.99;41.72
45991;BME280;31721;41.740;-88.000;2023-05-19T09:26:23;98638.23;;;18.97;41.98
45991;BME280;31721;41.740;-88.000;2023-05-19T09:28:50;98638.33;;;18.98;42.41
45991;BME280;31721;41.740;-88.000;2023-05-19T09:31:18;98634.33;;;18.98;42.33
45991;BME280;31721;41.740;-88.000;2023-05-19T09:33:47;98634.68;;;18.87;42.16
45991;BME280;31721;41.740;-88.000;2023-05-19T09:36:19;98636.83;;;18.90;42.74
45991;BME280;31721;41.740;-88.000;2023-05-19T09:38:47;98640.04;;;18.80;42.69
45991;BME280;31721;41.740;-88.000;2023-05-19T09:41:15;98639.95;;;18.74;42.64
45991;BME280;31721;41.740;-88.000;2023-05-19T09:43:42;98638.87;;;18.69;43.28
45991;BME280;31721;41.740;-88.000;2023-05-19T09:46:24;98643.01;;;18.86;43.60
45991;BME280;31721;41.740;-88.000;2023-05-19T09:48:56;98642.70;;;18.92;44.04
45991;BME280;31721;41.740;-88.000;2023-05-19T09:51:24;98640.92;;;19.02;44.15
45991;BME280;31721;41.740;-88.000;2023-05-19T09:53:52;98641.40;;;18.81;44.40
45991;BME280;31721;41.740;-88.000;2023-05-19T09:56:20;98645.47;;;18.73;44.80
45991;BME280;31721;41.740;-88.000;2023-05-19T09:58:49;98642.13;;;18.70;44.46
45991;BME280;31721;41.740;-88.000;2023-05-19T10:01:16;98645.55;;;18.66;44.62
45991;BME280;31721;41.740;-88.000;2023-05-19T10:03:45;98644.65;;;18.59;44.68
45991;BME280;31721;41.740;-88.000;2023-05-19T10:06:13;98649.17;;;18.91;45.28
45991;BME280;31721;41.740;-88.000;2023-05-19T10:08:41;98646.17;;;18.81;45.02
45991;BME280;31721;41.740;-88.000;2023-05-19T10:11:10;98644.54;;;18.96;45.34
45991;BME280;31721;41.740;-88.000;2023-05-19T10:13:38;98643.87;;;18.88;45.56
45991;BME280;31721;41.740;-88.000;2023-05-19T10:16:08;98650.93;;;19.12;45.83
45991;BME280;31721;41.740;-88.000;2023-05-19T10:18:37;98652.42;;;19.01;45.62
45991;BME280;31721;41.740;-88.000;2023-05-19T10:21:07;98657.43;;;19.15;45.81
45991;BME280;31721;41.740;-88.000;2023-05-19T10:23:35;98659.82;;;19.13;46.07
45991;BME280;31721;41.740;-88.000;2023-05-19T10:26:05;98661.70;;;19.15;46.04
45991;BME280;31721;41.740;-88.000;2023-05-19T10:28:36;98659.80;;;19.25;46.04
45991;BME280;31721;41.740;-88.000;2023-05-19T10:31:08;98661.34;;;19.09;46.05
45991;BME280;31721;41.740;-88.000;2023-05-19T10:33:46;98659.08;;;19.21;46.14
45991;BME280;31721;41.740;-88.000;2023-05-19T10:36:33;98661.35;;;19.15;46.34
45991;BME280;31721;41.740;-88.000;2023-05-19T10:39:06;98664.85;;;19.16;46.43
45991;BME280;31721;41.740;-88.000;2023-05-19T10:41:40;98676.05;;;19.17;46.21
45991;BME280;31721;41.740;-88.000;2023-05-19T10:44:25;98717.20;;;18.94;45.89
45991;BME280;31721;41.740;-88.000;2023-05-19T10:46:54;98708.57;;;18.94;46.50
45991;BME280;31721;41.740;-88.000;2023-05-19T10:49:22;98718.49;;;19.22;46.28
45991;BME280;31721;41.740;-88.000;2023-05-19T10:51:54;98730.60;;;18.91;46.54
45991;BME280;31721;41.740;-88.000;2023-05-19T10:54:38;98711.84;;;18.98;46.67
45991;BME280;31721;41.740;-88.000;2023-05-19T10:57:07;98736.04;;;19.02;46.46
45991;BME280;31721;41.740;-88.000;2023-05-19T10:59:36;98728.02;;;19.06;46.78
45991;BME280;31721;41.740;-88.000;2023-05-19T11:02:04;98736.55;;;19.08;47.04
45991;BME280;31721;41.740;-88.000;2023-05-19T11:04:44;98712.66;;;19.23;46.81
45991;BME280;31721;41.740;-88.000;2023-05-19T11:07:16;98736.11;;;19.12;46.93
45991;BME280;31721;41.740;-88.000;2023-05-19T11:09:49;98733.85;;;19.23;46.98
45991;BME280;31721;41.740;-88.000;2023-05-19T11:12:20;98737.50;;;19.45;46.97
45991;BME280;31721;41.740;-88.000;2023-05-19T11:14:51;98735.18;;;19.24;47.17
45991;BME280;31721;41.740;-88.000;2023-05-19T11:17:19;98747.67;;;19.18;47.07
45991;BME280;31721;41.740;-88.000;2023-05-19T11:19:53;98743.12;;;18.88;47.26
45991;BME280;31721;41.740;-88.000;2023-05-19T11:22:23;98734.18;;;18.92;47.21
45991;BME280;31721;41.740;-88.000;2023-05-19T11:24:53;98737.90;;;18.79;47.10
45991;BME280;31721;41.740;-88.000;2023-05-19T11:27:25;98736.80;;;18.84;47.64
45991;BME280;31721;41.740;-88.000;2023-05-19T11:29:54;98735.95;;;18.97;47.89
45991;BME280;31721;41.740;-88.000;2023-05-19T11:32:26;98740.62;;;19.00;47.58
45991;BME280;31721;41.740;-88.000;2023-05-19T11:34:55;98742.02;;;18.88;47.80
45991;BME280;31721;41.740;-88.000;2023-05-19T11:37:23;98736.65;;;18.89;48.06
45991;BME280;31721;41.740;-88.000;2023-05-19T11:39:51;98741.46;;;18.91;48.08
45991;BME280;31721;41.740;-88.000;2023-05-19T11:42:19;98742.32;;;18.99;48.56
45991;BME280;31721;41.740;-88.000;2023-05-19T11:44:47;98741.26;;;18.97;48.58
45991;BME280;31721;41.740;-88.000;2023-05-19T11:47:16;98742.25;;;18.94;48.44
45991;BME280;31721;41.740;-88.000;2023-05-19T11:49:44;98737.94;;;19.10;48.48
45991;BME280;31721;41.740;-88.000;2023-05-19T11:52:15;98735.57;;;19.03;48.62
45991;BME280;31721;41.740;-88.000;2023-05-19T11:54:42;98737.86;;;19.22;48.51
45991;BME280;31721;41.740;-88.000;2023-05-19T11:57:15;98736.63;;;19.24;48.36
45991;BME280;31721;41.740;-88.000;2023-05-19T11:59:44;98737.35;;;19.10;48.67
45991;BME280;31721;41.740;-88.000;2023-05-19T12:02:17;98737.83;;;19.24;48.71
45991;BME280;31721;41.740;-88.000;2023-05-19T12:04:45;98739.33;;;19.26;48.49
45991;BME280;31721;41.740;-88.000;2023-05-19T12:07:15;98741.38;;;19.27;48.74
45991;BME280;31721;41.740;-88.000;2023-05-19T12:09:42;98737.65;;;19.38;48.24
45991;BME280;31721;41.740;-88.000;2023-05-19T12:12:12;98737.54;;;19.34;48.21
45991;BME280;31721;41.740;-88.000;2023-05-19T12:14:41;98735.39;;;19.21;48.32
45991;BME280;31721;41.740;-88.000;2023-05-19T12:17:10;98735.89;;;19.26;48.42
45991;BME280;31721;41.740;-88.000;2023-05-19T12:19:39;98737.46;;;19.40;48.54
45991;BME280;31721;41.740;-88.000;2023-05-19T12:22:07;98736.99;;;19.45;48.62
45991;BME280;31721;41.740;-88.000;2023-05-19T12:24:37;98729.65;;;19.48;48.83
45991;BME280;31721;41.740;-88.000;2023-05-19T12:27:09;98724.83;;;19.51;48.48
45991;BME280;31721;41.740;-88.000;2023-05-19T12:29:38;98724.21;;;19.47;48.36
45991;BME280;31721;41.740;-88.000;2023-05-19T12:32:07;98719.21;;;19.81;48.37
45991;BME280;31721;41.740;-88.000;2023-05-19T12:34:35;98718.25;;;19.63;48.19
45991;BME280;31721;41.740;-88.000;2023-05-19T12:37:03;98716.68;;;19.49;48.45
45991;BME280;31721;41.740;-88.000;2023-05-19T12:39:31;98714.85;;;19.49;48.65
45991;BME280;31721;41.740;-88.000;2023-05-19T12:42:04;98720.85;;;19.53;48.77
45991;BME280;31721;41.740;-88.000;2023-05-19T12:44:36;98726.49;;;19.38;48.88
45991;BME280;31721;41.740;-88.000;2023-05-19T12:47:04;98724.69;;;19.48;48.88
45991;BME280;31721;41.740;-88.000;2023-05-19T12:49:32;98720.38;;;19.38;49.31